sensor_id;sensor_type;location;lat;lon;timestamp;temperature;humidity
5278;DHT22;2662;51.194;6.614;2023-06-01T00:01:55;17.50;99.90
5278;DHT22;2662;51.194;6.614;2023-06-01T00:04:21;17.40;99.90
5278;DHT22;2662;51.194;6.614;2023-06-01T00:06:49;17.40;99.90
5278;DHT22;2662;51.194;6.614;2023-06-01T00:09:16;17.40;99.90
5278;DHT22;2662;51.194;6.614;2023-06-01T00:11:43;17.30;99.90
5278;DHT22;2662;51.194;6.614;2023-06-01T00:14:10;17.30;99.90
5278;DHT22;2662;51.194;6.614;2023-06-01T00:16:37;17.20;99.90
5278;DHT22;2662;51.194;6.614;2023-06-01T00:19:03;17.20;99.90
5278;DHT22;2662;51.194;6.614;2023-06-01T00:21:30;17.10;99.90
5278;DHT22;2662;51.194;6.614;2023-06-01T00:24:00;17.10;99.90
5278;DHT22;2662;51.194;6.614;2023-06-01T00:26:26;17.10;99.90
5278;DHT22;2662;51.194;6.614;2023-06-01T00:28:55;17.10;99.90
5278;DHT22;2662;51.194;6.614;2023-06-01T00:31:22;17.00;99.90
5278;DHT22;2662;51.194;6.614;2023-06-01T00:33:49;17.00;99.90
5278;DHT22;2662;51.194;6.614;2023-06-01T00:36:16;16.90;99.90
5278;DHT22;2662;51.194;6.614;2023-06-01T00:38:43;16.80;99.90
5278;DHT22;2662;51.194;6.614;2023-06-01T00:41:13;16.80;99.90
5278;DHT22;2662;51.194;6.614;2023-06-01T00:43:39;16.70;99.90
5278;DHT22;2662;51.194;6.614;2023-06-01T00:46:06;16.70;99.90
5278;DHT22;2662;51.194;6.614;2023-06-01T00:48:34;16.60;99.90
5278;DHT22;2662;51.194;6.614;2023-06-01T00:51:01;16.60;99.90
5278;DHT22;2662;51.194;6.614;2023-06-01T00:53:28;16.60;99.90
5278;DHT22;2662;51.194;6.614;2023-06-01T00:55:55;16.50;99.90
5278;DHT22;2662;51.194;6.614;2023-06-01T00:58:23;16.50;99.90
5278;DHT22;2662;51.194;6.614;2023-06-01T01:00:50;16.50;99.90
5278;DHT22;2662;51.194;6.614;2023-06-01T01:03:19;16.40;99.90
5278;DHT22;2662;51.194;6.614;2023-06-01T01:05:47;16.40;99.90
5278;DHT22;2662;51.194;6.614;2023-06-01T01:08:21;16.40;99.90
5278;DHT22;2662;51.194;6.614;2023-06-01T01:10:58;16.30;99.90
5278;DHT22;2662;51.194;6.614;2023-06-01T01:13:31;16.30;99.90
5278;DHT22;2662;51.194;6.614;2023-06-01T01:16:03;16.20;99.90
5278;DHT22;2662;51.194;6.614;2023-06-01T01:18:36;16.20;99.90
5278;DHT22;2662;51.194;6.614;2023-06-01T01:21:04;16.10;99.90
5278;DHT22;2662;51.194;6.614;2023-06-01T01:24:05;16.10;99.90
5278;DHT22;2662;51.194;6.614;2023-06-01T01:26:46;16.00;99.90
5278;DHT22;2662;51.194;6.614;2023-06-01T01:29:21;15.90;99.90
5278;DHT22;2662;51.194;6.614;2023-06-01T01:31:49;15.90;99.90
5278;DHT22;2662;51.194;6.614;2023-06-01T01:34:18;15.80;99.90
5278;DHT22;2662;51.194;6.614;2023-06-01T01:36:46;15.80;99.90
5278;DHT22;2662;51.194;6.614;2023-06-01T01:39:13;15.80;99.90
5278;DHT22;2662;51.194;6.614;2023-06-01T01:41:40;15.70;99.90
5278;DHT22;2662;51.194;6.614;2023-06-01T01:44:06;15.60;99.90
5278;DHT22;2662;51.194;6.614;2023-06-01T01:46:40;15.60;99.90
5278;DHT22;2662;51.194;6.614;2023-06-01T01:49:14;15.60;99.90
5278;DHT22;2662;51.194;6.614;2023-06-01T01:51:47;15.50;99.90
5278;DHT22;2662;51.194;6.614;2023-06-01T01:54:16;15.40;99.90
5278;DHT22;2662;51.194;6.614;2023-06-01T01:56:44;15.40;99.90
5278;DHT22;2662;51.194;6.614;2023-06-01T01:59:12;15.40;99.90
5278;DHT22;2662;51.194;6.614;2023-06-01T02:01:42;15.40;99.90
5278;DHT22;2662;51.194;6.614;2023-06-01T02:04:10;15.30;99.90
5278;DHT22;2662;51.194;6.614;2023-06-01T02:06:37;15.20;99.90
5278;DHT22;2662;51.194;6.614;2023-06-01T02:09:04;15.10;99.90
5278;DHT22;2662;51.194;6.614;2023-06-01T02:11:32;15.10;99.90
5278;DHT22;2662;51.194;6.614;2023-06-01T02:13:59;15.00;99.90
5278;DHT22;2662;51.194;6.614;2023-06-01T02:16:26;15.00;99.90
5278;DHT22;2662;51.194;6.614;2023-06-01T02:18:54;14.80;99.90
5278;DHT22;2662;51.194;6.614;2023-06-01T02:21:23;14.80;99.90
5278;DHT22;2662;51.194;6.614;2023-06-01T02:23:50;14.70;99.90
5278;DHT22;2662;51.194;6.614;2023-06-01T02:26:17;14.70;99.90
5278;DHT22;2662;51.194;6.614;2023-06-01T02:28:43;14.70;99.90
5278;DHT22;2662;51.194;6.614;2023-06-01T02:31:12;14.60;99.90
5278;DHT22;2662;51.194;6.614;2023-06-01T02:33:38;14.60;99.90
5278;DHT22;2662;51.194;6.614;2023-06-01T02:36:07;14.50;99.90
5278;DHT22;2662;51.194;6.614;2023-06-01T02:38:33;14.50;99.90
5278;DHT22;2662;51.194;6.614;2023-06-01T02:41:00;14.40;99.90
5278;DHT22;2662;51.194;6.614;2023-06-01T02:43:27;14.40;99.90
5278;DHT22;2662;51.194;6.614;2023-06-01T02:45:54;14.30;99.90
5278;DHT22;2662;51.194;6.614;2023-06-01T02:48:21;14.20;99.90
5278;DHT22;2662;51.194;6.614;2023-06-01T02:50:48;14.20;99.90
5278;DHT22;2662;51.194;6.614;2023-06-01T02:53:16;14.20;99.90
5278;DHT22;2662;51.194;6.614;2023-06-01T02:55:43;14.10;99.90
5278;DHT22;2662;51.194;6.614;2023-06-01T02:58:09;14.10;99.90
5278;DHT22;2662;51.194;6.614;2023-06-01T03:00:41;14.10;99.90
5278;DHT22;2662;51.194;6.614;2023-06-01T03:03:08;14.00;99.90
5278;DHT22;2662;51.194;6.614;2023-06-01T03:05:36;14.00;99.90
5278;DHT22;2662;51.194;6.614;2023-06-01T03:08:02;13.90;99.90
5278;DHT22;2662;51.194;6.614;2023-06-01T03:10:30;13.80;99.90
5278;DHT22;2662;51.194;6.614;2023-06-01T03:12:57;13.80;99.90
5278;DHT22;2662;51.194;6.614;2023-06-01T03:15:24;13.80;99.90
5278;DHT22;2662;51.194;6.614;2023-06-01T03:17:52;13.70;99.90
5278;DHT22;2662;51.194;6.614;2023-06-01T03:20:19;13.70;99.90
5278;DHT22;2662;51.194;6.614;2023-06-01T03:22:46;13.70;99.90
5278;DHT22;2662;51.194;6.614;2023-06-01T03:25:13;13.60;99.90
5278;DHT22;2662;51.194;6.614;2023-06-01T03:27:41;13.60;99.90
5278;DHT22;2662;51.194;6.614;2023-06-01T03:30:09;13.60;99.90
5278;DHT22;2662;51.194;6.614;2023-06-01T03:32:37;13.60;99.90
5278;DHT22;2662;51.194;6.614;2023-06-01T03:35:04;13.60;99.90
5278;DHT22;2662;51.194;6.614;2023-06-01T03:37:33;13.50;99.90
5278;DHT22;2662;51.194;6.614;2023-06-01T03:39:59;13.50;99.90
5278;DHT22;2662;51.194;6.614;2023-06-01T03:42:26;13.40;99.90
5278;DHT22;2662;51.194;6.614;2023-06-01T03:44:54;13.40;99.90
5278;DHT22;2662;51.194;6.614;2023-06-01T03:47:21;13.40;99.90
5278;DHT22;2662;51.194;6.614;2023-06-01T03:49:48;13.40;99.90
5278;DHT22;2662;51.194;6.614;2023-06-01T03:52:14;13.30;99.90
5278;DHT22;2662;51.194;6.614;2023-06-01T03:54:43;13.30;99.90
5278;DHT22;2662;51.194;6.614;2023-06-01T03:57:10;13.30;99.90
5278;DHT22;2662;51.194;6.614;2023-06-01T03:59:37;13.40;99.90
5278;DHT22;2662;51.194;6.614;2023-06-01T04:02:05;13.40;99.90
5278;DHT22;2662;51.194;6.614;2023-06-01T04:04:34;13.40;99.90
5278;DHT22;2662;51.194;6.614;2023-06-01T04:07:01;13.50;99.90
5278;DHT22;2662;51.194;6.614;2023-06-01T04:09:29;13.60;99.90
5278;DHT22;2662;51.194;6.614;2023-06-01T04:11:56;13.50;99.90
5278;DHT22;2662;51.194;6.614;2023-06-01T04:14:22;13.60;99.90
5278;DHT22;2662;51.194;6.614;2023-06-01T04:16:49;13.50;99.90
5278;DHT22;2662;51.194;6.614;2023-06-01T04:19:17;13.60;99.90
5278;DHT22;2662;51.194;6.614;2023-06-01T04:21:44;13.20;99.90
5278;DHT22;2662;51.194;6.614;2023-06-01T04:24:11;13.10;99.90
5278;DHT22;2662;51.194;6.614;2023-06-01T04:26:38;13.30;99.90
5278;DHT22;2662;51.194;6.614;2023-06-01T04:29:05;13.30;99.90
5278;DHT22;2662;51.194;6.614;2023-06-01T04:31:31;13.40;99.90
5278;DHT22;2662;51.194;6.614;2023-06-01T04:33:59;13.40;99.90
5278;DHT22;2662;51.194;6.614;2023-06-01T04:36:28;13.40;99.90
5278;DHT22;2662;51.194;6.614;2023-06-01T04:38:55;13.40;99.90
5278;DHT22;2662;51.194;6.614;2023-06-01T04:41:23;13.20;99.90
5278;DHT22;2662;51.194;6.614;2023-06-01T04:43:50;13.30;99.90
5278;DHT22;2662;51.194;6.614;2023-06-01T04:46:19;13.40;99.90
5278;DHT22;2662;51.194;6.614;2023-06-01T04:48:46;13.50;99.90
5278;DHT22;2662;51.194;6.614;2023-06-01T04:51:13;13.50;99.90
5278;DHT22;2662;51.194;6.614;2023-06-01T04:53:47;13.50;99.90
5278;DHT22;2662;51.194;6.614;2023-06-01T04:56:16;13.50;99.90
5278;DHT22;2662;51.194;6.614;2023-06-01T04:58:44;13.20;99.90
5278;DHT22;2662;51.194;6.614;2023-06-01T05:01:13;13.30;99.90
5278;DHT22;2662;51.194;6.614;2023-06-01T05:03:41;13.20;99.90
5278;DHT22;2662;51.194;6.614;2023-06-01T05:06:09;13.30;99.90
5278;DHT22;2662;51.194;6.614;2023-06-01T05:08:37;13.30;99.90
5278;DHT22;2662;51.194;6.614;2023-06-01T05:11:07;13.20;99.90
5278;DHT22;2662;51.194;6.614;2023-06-01T05:13:34;13.00;99.90
5278;DHT22;2662;51.194;6.614;2023-06-01T05:16:01;13.30;99.90
5278;DHT22;2662;51.194;6.614;2023-06-01T05:18:27;13.40;99.90
5278;DHT22;2662;51.194;6.614;2023-06-01T05:20:54;13.60;99.90
5278;DHT22;2662;51.194;6.614;2023-06-01T05:23:21;13.40;99.90
5278;DHT22;2662;51.194;6.614;2023-06-01T05:25:48;13.30;99.90
5278;DHT22;2662;51.194;6.614;2023-06-01T05:28:16;13.00;99.90
5278;DHT22;2662;51.194;6.614;2023-06-01T05:30:43;13.10;99.90
5278;DHT22;2662;51.194;6.614;2023-06-01T05:33:10;13.10;99.90
5278;DHT22;2662;51.194;6.614;2023-06-01T05:35:37;13.00;99.90
5278;DHT22;2662;51.194;6.614;2023-06-01T05:38:03;13.10;99.90
5278;DHT22;2662;51.194;6.614;2023-06-01T05:40:30;13.30;99.90
5278;DHT22;2662;51.194;6.614;2023-06-01T05:42:57;13.40;99.90
5278;DHT22;2662;51.194;6.614;2023-06-01T05:45:25;13.70;99.90
5278;DHT22;2662;51.194;6.614;2023-06-01T05:47:52;13.80;99.90
5278;DHT22;2662;51.194;6.614;2023-06-01T05:50:19;13.90;99.90
5278;DHT22;2662;51.194;6.614;2023-06-01T05:52:46;14.10;99.90
5278;DHT22;2662;51.194;6.614;2023-06-01T05:55:13;14.20;99.90
5278;DHT22;2662;51.194;6.614;2023-06-01T05:57:39;14.30;99.90
5278;DHT22;2662;51.194;6.614;2023-06-01T06:00:07;14.20;99.90
5278;DHT22;2662;51.194;6.614;2023-06-01T06:02:39;14.30;99.90
5278;DHT22;2662;51.194;6.614;2023-06-01T06:05:07;14.30;99.90
5278;DHT22;2662;51.194;6.614;2023-06-01T06:07:34;14.40;99.90
5278;DHT22;2662;51.194;6.614;2023-06-01T06:10:02;14.40;99.90
5278;DHT22;2662;51.194;6.614;2023-06-01T06:12:29;14.40;99.90
5278;DHT22;2662;51.194;6.614;2023-06-01T06:14:56;14.40;99.90
5278;DHT22;2662;51.194;6.614;2023-06-01T06:17:23;14.40;99.90
5278;DHT22;2662;51.194;6.614;2023-06-01T06:19:51;14.50;99.90
5278;DHT22;2662;51.194;6.614;2023-06-01T06:22:18;14.60;99.90
5278;DHT22;2662;51.194;6.614;2023-06-01T06:24:45;14.70;99.90
5278;DHT22;2662;51.194;6.614;2023-06-01T06:27:12;14.80;99.90
5278;DHT22;2662;51.194;6.614;2023-06-01T06:29:39;14.80;99.90
5278;DHT22;2662;51.194;6.614;2023-06-01T06:32:07;14.70;99.90
5278;DHT22;2662;51.194;6.614;2023-06-01T06:34:33;14.60;99.90
5278;DHT22;2662;51.194;6.614;2023-06-01T06:37:04;14.50;99.90
5278;DHT22;2662;51.194;6.614;2023-06-01T06:39:31;14.60;99.90
5278;DHT22;2662;51.194;6.614;2023-06-01T06:41:58;14.50;99.90
5278;DHT22;2662;51.194;6.614;2023-06-01T06:44:26;14.60;99.90
5278;DHT22;2662;51.194;6.614;2023-06-01T06:46:53;14.70;99.90
5278;DHT22;2662;51.194;6.614;2023-06-01T06:49:20;14.90;99.90
5278;DHT22;2662;51.194;6.614;2023-06-01T06:51:47;15.00;99.90
5278;DHT22;2662;51.194;6.614;2023-06-01T06:54:15;15.40;99.90
5278;DHT22;2662;51.194;6.614;2023-06-01T06:56:42;15.90;99.90
5278;DHT22;2662;51.194;6.614;2023-06-01T06:59:10;16.00;99.90
5278;DHT22;2662;51.194;6.614;2023-06-01T07:01:36;16.30;99.90
5278;DHT22;2662;51.194;6.614;2023-06-01T07:04:04;16.80;99.90
5278;DHT22;2662;51.194;6.614;2023-06-01T07:06:31;17.00;99.90
5278;DHT22;2662;51.194;6.614;2023-06-01T07:08:59;17.20;99.90
5278;DHT22;2662;51.194;6.614;2023-06-01T07:11:27;18.00;99.90
5278;DHT22;2662;51.194;6.614;2023-06-01T07:13:54;19.30;99.90
5278;DHT22;2662;51.194;6.614;2023-06-01T07:16:23;19.00;99.90
5278;DHT22;2662;51.194;6.614;2023-06-01T07:18:50;19.20;99.90
5278;DHT22;2662;51.194;6.614;2023-06-01T07:21:17;20.50;99.90
5278;DHT22;2662;51.194;6.614;2023-06-01T07:23:44;21.90;99.90
5278;DHT22;2662;51.194;6.614;2023-06-01T07:26:11;22.70;99.90
5278;DHT22;2662;51.194;6.614;2023-06-01T07:28:39;22.90;99.90
5278;DHT22;2662;51.194;6.614;2023-06-01T07:31:08;24.40;99.90
5278;DHT22;2662;51.194;6.614;2023-06-01T07:33:35;25.00;99.80
5278;DHT22;2662;51.194;6.614;2023-06-01T07:36:03;24.70;99.10
5278;DHT22;2662;51.194;6.614;2023-06-01T07:38:29;24.50;98.50
5278;DHT22;2662;51.194;6.614;2023-06-01T07:40:56;24.50;99.50
5278;DHT22;2662;51.194;6.614;2023-06-01T07:43:23;25.70;97.90
5278;DHT22;2662;51.194;6.614;2023-06-01T07:45:51;25.80;96.50
5278;DHT22;2662;51.194;6.614;2023-06-01T07:48:18;26.40;95.60
5278;DHT22;2662;51.194;6.614;2023-06-01T07:50:45;26.90;94.30
5278;DHT22;2662;51.194;6.614;2023-06-01T07:53:11;26.40;93.90
5278;DHT22;2662;51.194;6.614;2023-06-01T07:55:38;26.60;92.70
5278;DHT22;2662;51.194;6.614;2023-06-01T07:58:05;26.50;92.20
5278;DHT22;2662;51.194;6.614;2023-06-01T08:00:32;25.40;93.00
5278;DHT22;2662;51.194;6.614;2023-06-01T08:03:01;25.30;93.30
5278;DHT22;2662;51.194;6.614;2023-06-01T08:05:34;25.10;94.00
5278;DHT22;2662;51.194;6.614;2023-06-01T08:08:01;26.40;93.70
5278;DHT22;2662;51.194;6.614;2023-06-01T08:10:28;27.10;91.40
5278;DHT22;2662;51.194;6.614;2023-06-01T08:12:55;26.80;91.40
5278;DHT22;2662;51.194;6.614;2023-06-01T08:15:23;25.60;91.50
5278;DHT22;2662;51.194;6.614;2023-06-01T08:17:51;26.10;92.40
5278;DHT22;2662;51.194;6.614;2023-06-01T08:20:19;26.20;91.90
5278;DHT22;2662;51.194;6.614;2023-06-01T08:22:47;26.50;91.30
5278;DHT22;2662;51.194;6.614;2023-06-01T08:25:15;26.40;90.40
5278;DHT22;2662;51.194;6.614;2023-06-01T08:27:41;26.70;90.90
5278;DHT22;2662;51.194;6.614;2023-06-01T08:30:09;26.90;90.50
5278;DHT22;2662;51.194;6.614;2023-06-01T08:32:36;27.00;90.60
5278;DHT22;2662;51.194;6.614;2023-06-01T08:35:04;26.80;90.40
5278;DHT22;2662;51.194;6.614;2023-06-01T08:37:33;26.60;90.90
5278;DHT22;2662;51.194;6.614;2023-06-01T08:40:00;26.30;90.80
5278;DHT22;2662;51.194;6.614;2023-06-01T08:42:30;26.70;90.50
5278;DHT22;2662;51.194;6.614;2023-06-01T08:45:04;27.20;88.50
5278;DHT22;2662;51.194;6.614;2023-06-01T08:47:32;27.10;88.60
5278;DHT22;2662;51.194;6.614;2023-06-01T08:49:59;26.10;89.90
5278;DHT22;2662;51.194;6.614;2023-06-01T08:52:28;26.40;90.90
5278;DHT22;2662;51.194;6.614;2023-06-01T08:54:59;26.70;90.80
5278;DHT22;2662;51.194;6.614;2023-06-01T08:57:26;27.00;90.00
5278;DHT22;2662;51.194;6.614;2023-06-01T08:59:53;27.10;88.10
5278;DHT22;2662;51.194;6.614;2023-06-01T09:02:20;27.30;89.30
5278;DHT22;2662;51.194;6.614;2023-06-01T09:04:47;27.00;88.10
5278;DHT22;2662;51.194;6.614;2023-06-01T09:07:14;26.90;90.40
5278;DHT22;2662;51.194;6.614;2023-06-01T09:09:41;27.70;88.50
5278;DHT22;2662;51.194;6.614;2023-06-01T09:12:21;28.40;87.60
5278;DHT22;2662;51.194;6.614;2023-06-01T09:14:49;28.90;85.40
5278;DHT22;2662;51.194;6.614;2023-06-01T09:17:21;28.50;84.20
5278;DHT22;2662;51.194;6.614;2023-06-01T09:19:54;28.40;83.60
5278;DHT22;2662;51.194;6.614;2023-06-01T09:22:21;28.40;83.70
5278;DHT22;2662;51.194;6.614;2023-06-01T09:24:58;28.50;84.00
5278;DHT22;2662;51.194;6.614;2023-06-01T09:27:26;28.30;84.00
5278;DHT22;2662;51.194;6.614;2023-06-01T09:29:54;28.30;82.90
5278;DHT22;2662;51.194;6.614;2023-06-01T09:32:21;28.70;82.50
5278;DHT22;2662;51.194;6.614;2023-06-01T09:34:48;27.70;81.60
5278;DHT22;2662;51.194;6.614;2023-06-01T09:37:15;27.50;83.10
5278;DHT22;2662;51.194;6.614;2023-06-01T09:39:42;27.70;83.40
5278;DHT22;2662;51.194;6.614;2023-06-01T09:42:09;27.90;83.60
5278;DHT22;2662;51.194;6.614;2023-06-01T09:44:40;28.60;82.80
5278;DHT22;2662;51.194;6.614;2023-06-01T09:47:08;28.90;82.20
5278;DHT22;2662;51.194;6.614;2023-06-01T09:49:38;28.80;80.80
5278;DHT22;2662;51.194;6.614;2023-06-01T09:52:09;28.40;79.80
5278;DHT22;2662;51.194;6.614;2023-06-01T09:54:39;26.50;79.60
5278;DHT22;2662;51.194;6.614;2023-06-01T09:57:07;25.50;83.20
5278;DHT22;2662;51.194;6.614;2023-06-01T09:59:40;25.20;84.70
5278;DHT22;2662;51.194;6.614;2023-06-01T10:02:12;25.80;86.00
5278;DHT22;2662;51.194;6.614;2023-06-01T10:04:40;26.30;85.00
5278;DHT22;2662;51.194;6.614;2023-06-01T10:07:08;26.80;84.20
5278;DHT22;2662;51.194;6.614;2023-06-01T10:09:38;27.20;87.00
5278;DHT22;2662;51.194;6.614;2023-06-01T10:12:06;27.50;84.40
5278;DHT22;2662;51.194;6.614;2023-06-01T10:14:35;27.60;83.90
5278;DHT22;2662;51.194;6.614;2023-06-01T10:17:04;27.70;84.30
5278;DHT22;2662;51.194;6.614;2023-06-01T10:19:30;27.90;81.80
5278;DHT22;2662;51.194;6.614;2023-06-01T10:21:58;27.50;82.20
5278;DHT22;2662;51.194;6.614;2023-06-01T10:24:25;27.40;83.70
5278;DHT22;2662;51.194;6.614;2023-06-01T10:26:58;27.30;80.50
5278;DHT22;2662;51.194;6.614;2023-06-01T10:29:28;26.90;80.30
5278;DHT22;2662;51.194;6.614;2023-06-01T10:31:55;27.10;85.20
5278;DHT22;2662;51.194;6.614;2023-06-01T10:34:41;27.50;83.30
5278;DHT22;2662;51.194;6.614;2023-06-01T10:37:13;27.40;82.60
5278;DHT22;2662;51.194;6.614;2023-06-01T10:39:40;27.70;82.80
5278;DHT22;2662;51.194;6.614;2023-06-01T10:42:36;27.30;82.70
5278;DHT22;2662;51.194;6.614;2023-06-01T10:45:05;26.90;83.60
5278;DHT22;2662;51.194;6.614;2023-06-01T10:47:45;26.90;84.00
5278;DHT22;2662;51.194;6.614;2023-06-01T10:50:18;26.90;82.70
5278;DHT22;2662;51.194;6.614;2023-06-01T10:52:45;26.50;82.30
5278;DHT22;2662;51.194;6.614;2023-06-01T10:55:28;26.20;83.90
5278;DHT22;2662;51.194;6.614;2023-06-01T10:58:20;25.80;83.90
5278;DHT22;2662;51.194;6.614;2023-06-01T11:00:54;25.40;85.30
5278;DHT22;2662;51.194;6.614;2023-06-01T11:03:43;25.00;84.60
5278;DHT22;2662;51.194;6.614;2023-06-01T11:06:25;24.30;88.20
5278;DHT22;2662;51.194;6.614;2023-06-01T11:08:59;24.10;89.90
5278;DHT22;2662;51.194;6.614;2023-06-01T11:11:59;23.80;90.60
5278;DHT22;2662;51.194;6.614;2023-06-01T11:14:28;23.50;90.90
5278;DHT22;2662;51.194;6.614;2023-06-01T11:17:27;23.30;91.80
5278;DHT22;2662;51.194;6.614;2023-06-01T11:20:02;22.90;90.80
5278;DHT22;2662;51.194;6.614;2023-06-01T11:22:35;22.80;92.10
5278;DHT22;2662;51.194;6.614;2023-06-01T11:25:05;22.70;93.10
5278;DHT22;2662;51.194;6.614;2023-06-01T11:27:33;22.70;93.40
5278;DHT22;2662;51.194;6.614;2023-06-01T11:30:01;22.70;93.90
5278;DHT22;2662;51.194;6.614;2023-06-01T11:32:33;22.60;94.50
5278;DHT22;2662;51.194;6.614;2023-06-01T11:35:16;22.50;94.50
5278;DHT22;2662;51.194;6.614;2023-06-01T11:37:42;22.50;94.90
5278;DHT22;2662;51.194;6.614;2023-06-01T11:40:10;22.60;94.20
5278;DHT22;2662;51.194;6.614;2023-06-01T11:42:37;22.50;94.90
5278;DHT22;2662;51.194;6.614;2023-06-01T11:45:05;22.30;93.60
5278;DHT22;2662;51.194;6.614;2023-06-01T11:47:33;22.30;94.50
5278;DHT22;2662;51.194;6.614;2023-06-01T11:50:01;22.10;93.50
5278;DHT22;2662;51.194;6.614;2023-06-01T11:52:29;22.20;94.50
5278;DHT22;2662;51.194;6.614;2023-06-01T11:55:02;22.20;93.80
5278;DHT22;2662;51.194;6.614;2023-06-01T11:57:29;22.30;93.80
5278;DHT22;2662;51.194;6.614;2023-06-01T11:59:56;22.40;94.40
5278;DHT22;2662;51.194;6.614;2023-06-01T12:02:26;22.60;94.50
5278;DHT22;2662;51.194;6.614;2023-06-01T12:04:59;22.70;94.60
5278;DHT22;2662;51.194;6.614;2023-06-01T12:07:27;22.70;94.20
5278;DHT22;2662;51.194;6.614;2023-06-01T12:09:55;22.30;94.10
5278;DHT22;2662;51.194;6.614;2023-06-01T12:12:23;22.40;95.80
5278;DHT22;2662;51.194;6.614;2023-06-01T12:14:51;22.60;95.50
5278;DHT22;2662;51.194;6.614;2023-06-01T12:17:17;22.80;95.50
5278;DHT22;2662;51.194;6.614;2023-06-01T12:19:45;22.90;95.10
5278;DHT22;2662;51.194;6.614;2023-06-01T12:22:14;22.90;95.40
5278;DHT22;2662;51.194;6.614;2023-06-01T12:24:43;23.10;95.30
5278;DHT22;2662;51.194;6.614;2023-06-01T12:27:14;23.20;94.90
5278;DHT22;2662;51.194;6.614;2023-06-01T12:29:42;23.30;95.00
5278;DHT22;2662;51.194;6.614;2023-06-01T12:32:10;23.40;94.00
5278;DHT22;2662;51.194;6.614;2023-06-01T12:34:38;23.20;94.30
5278;DHT22;2662;51.194;6.614;2023-06-01T12:37:17;23.10;93.80
5278;DHT22;2662;51.194;6.614;2023-06-01T12:39:51;23.10;93.90
5278;DHT22;2662;51.194;6.614;2023-06-01T12:42:19;23.20;94.90
5278;DHT22;2662;51.194;6.614;2023-06-01T12:44:59;23.40;94.70
5278;DHT22;2662;51.194;6.614;2023-06-01T12:47:26;23.00;93.30
5278;DHT22;2662;51.194;6.614;2023-06-01T12:50:03;22.80;93.50
5278;DHT22;2662;51.194;6.614;2023-06-01T12:52:31;22.70;92.40
5278;DHT22;2662;51.194;6.614;2023-06-01T12:54:58;22.80;93.90
5278;DHT22;2662;51.194;6.614;2023-06-01T12:57:25;22.90;94.50
5278;DHT22;2662;51.194;6.614;2023-06-01T12:59:52;22.80;94.10
5278;DHT22;2662;51.194;6.614;2023-06-01T13:02:19;22.60;93.50
5278;DHT22;2662;51.194;6.614;2023-06-01T13:04:46;22.40;94.70
5278;DHT22;2662;51.194;6.614;2023-06-01T13:07:12;22.50;96.30
5278;DHT22;2662;51.194;6.614;2023-06-01T13:09:40;22.70;98.50
5278;DHT22;2662;51.194;6.614;2023-06-01T13:12:08;23.00;95.50
5278;DHT22;2662;51.194;6.614;2023-06-01T13:14:34;23.00;96.00
5278;DHT22;2662;51.194;6.614;2023-06-01T13:17:01;23.10;96.50
5278;DHT22;2662;51.194;6.614;2023-06-01T13:19:29;23.20;95.50
5278;DHT22;2662;51.194;6.614;2023-06-01T13:21:55;23.20;92.70
5278;DHT22;2662;51.194;6.614;2023-06-01T13:24:23;23.10;93.50
5278;DHT22;2662;51.194;6.614;2023-06-01T13:26:51;23.30;93.60
5278;DHT22;2662;51.194;6.614;2023-06-01T13:29:18;23.30;94.00
5278;DHT22;2662;51.194;6.614;2023-06-01T13:31:44;23.30;94.20
5278;DHT22;2662;51.194;6.614;2023-06-01T13:34:11;23.40;93.90
5278;DHT22;2662;51.194;6.614;2023-06-01T13:36:38;23.20;95.50
5278;DHT22;2662;51.194;6.614;2023-06-01T13:39:05;23.30;95.70
5278;DHT22;2662;51.194;6.614;2023-06-01T13:41:31;23.30;95.90
5278;DHT22;2662;51.194;6.614;2023-06-01T13:44:00;23.30;95.00
5278;DHT22;2662;51.194;6.614;2023-06-01T13:46:27;23.20;95.20
5278;DHT22;2662;51.194;6.614;2023-06-01T13:48:54;23.30;95.00
5278;DHT22;2662;51.194;6.614;2023-06-01T13:51:20;23.20;93.40
5278;DHT22;2662;51.194;6.614;2023-06-01T13:53:48;23.00;93.90
5278;DHT22;2662;51.194;6.614;2023-06-01T13:56:15;22.90;95.50
5278;DHT22;2662;51.194;6.614;2023-06-01T13:58:41;23.00;95.80
5278;DHT22;2662;51.194;6.614;2023-06-01T14:01:09;23.00;95.20
5278;DHT22;2662;51.194;6.614;2023-06-01T14:03:36;22.90;96.40
5278;DHT22;2662;51.194;6.614;2023-06-01T14:06:03;23.00;95.70
5278;DHT22;2662;51.194;6.614;2023-06-01T14:08:31;23.10;95.00
5278;DHT22;2662;51.194;6.614;2023-06-01T14:10:58;23.00;94.40
5278;DHT22;2662;51.194;6.614;2023-06-01T14:13:24;22.80;94.00
5278;DHT22;2662;51.194;6.614;2023-06-01T14:15:51;22.80;94.70
5278;DHT22;2662;51.194;6.614;2023-06-01T14:18:19;22.80;94.20
5278;DHT22;2662;51.194;6.614;2023-06-01T14:20:46;22.70;93.20
5278;DHT22;2662;51.194;6.614;2023-06-01T14:23:13;22.70;92.40
5278;DHT22;2662;51.194;6.614;2023-06-01T14:25:40;22.60;93.80
5278;DHT22;2662;51.194;6.614;2023-06-01T14:28:07;22.80;93.90
5278;DHT22;2662;51.194;6.614;2023-06-01T14:30:34;22.70;93.20
5278;DHT22;2662;51.194;6.614;2023-06-01T14:33:00;22.70;93.60
5278;DHT22;2662;51.194;6.614;2023-06-01T14:35:29;22.50;93.70
5278;DHT22;2662;51.194;6.614;2023-06-01T14:37:55;22.40;94.10
5278;DHT22;2662;51.194;6.614;2023-06-01T14:40:23;22.60;94.90
5278;DHT22;2662;51.194;6.614;2023-06-01T14:42:49;22.60;94.80
5278;DHT22;2662;51.194;6.614;2023-06-01T14:45:16;22.80;96.70
5278;DHT22;2662;51.194;6.614;2023-06-01T14:47:44;22.80;95.20
5278;DHT22;2662;51.194;6.614;2023-06-01T14:50:11;22.80;94.30
5278;DHT22;2662;51.194;6.614;2023-06-01T14:52:39;22.80;94.60
5278;DHT22;2662;51.194;6.614;2023-06-01T14:55:07;22.90;95.00
5278;DHT22;2662;51.194;6.614;2023-06-01T14:57:33;22.90;95.70
5278;DHT22;2662;51.194;6.614;2023-06-01T15:00:00;22.70;95.00
5278;DHT22;2662;51.194;6.614;2023-06-01T15:02:27;22.70;94.80
5278;DHT22;2662;51.194;6.614;2023-06-01T15:04:54;22.60;95.00
5278;DHT22;2662;51.194;6.614;2023-06-01T15:07:20;22.60;95.30
5278;DHT22;2662;51.194;6.614;2023-06-01T15:09:48;22.70;96.90
5278;DHT22;2662;51.194;6.614;2023-06-01T15:12:15;22.80;95.50
5278;DHT22;2662;51.194;6.614;2023-06-01T15:14:42;22.70;94.50
5278;DHT22;2662;51.194;6.614;2023-06-01T15:17:09;23.00;95.20
5278;DHT22;2662;51.194;6.614;2023-06-01T15:19:36;22.70;96.20
5278;DHT22;2662;51.194;6.614;2023-06-01T15:22:02;22.70;95.40
5278;DHT22;2662;51.194;6.614;2023-06-01T15:24:29;22.60;96.00
5278;DHT22;2662;51.194;6.614;2023-06-01T15:26:58;22.70;96.20
5278;DHT22;2662;51.194;6.614;2023-06-01T15:29:24;22.80;95.30
5278;DHT22;2662;51.194;6.614;2023-06-01T15:31:51;22.80;95.50
5278;DHT22;2662;51.194;6.614;2023-06-01T15:34:18;22.90;96.20
5278;DHT22;2662;51.194;6.614;2023-06-01T15:36:44;22.90;96.30
5278;DHT22;2662;51.194;6.614;2023-06-01T15:39:11;22.80;96.70
5278;DHT22;2662;51.194;6.614;2023-06-01T15:41:38;23.00;97.20
5278;DHT22;2662;51.194;6.614;2023-06-01T15:44:06;23.10;96.50
5278;DHT22;2662;51.194;6.614;2023-06-01T15:46:33;23.00;97.10
5278;DHT22;2662;51.194;6.614;2023-06-01T15:49:00;23.10;96.90
5278;DHT22;2662;51.194;6.614;2023-06-01T15:51:27;23.10;96.30
5278;DHT22;2662;51.194;6.614;2023-06-01T15:53:53;23.00;97.10
5278;DHT22;2662;51.194;6.614;2023-06-01T15:56:20;23.10;97.00
5278;DHT22;2662;51.194;6.614;2023-06-01T15:58:48;23.10;97.00
5278;DHT22;2662;51.194;6.614;2023-06-01T16:01:16;22.90;97.70
5278;DHT22;2662;51.194;6.614;2023-06-01T16:03:43;23.10;97.30
5278;DHT22;2662;51.194;6.614;2023-06-01T16:06:10;23.20;97.20
5278;DHT22;2662;51.194;6.614;2023-06-01T16:08:37;23.40;98.20
5278;DHT22;2662;51.194;6.614;2023-06-01T16:11:03;23.40;97.60